Time;durP1;ratioP1;P1;durP2;ratioP2;P2;SDS_P1;SDS_P2;PMS_P1;PMS_P2;Temp;Humidity;BMP_temperature;BMP_pressure;BME280_temperature;BME280_humidity;BME280_pressure;Samples;Min_cycle;Max_cycle;Signal;HPM_P1;HPM_P2
2023/06/12 00:00:53;;;;;;;10.45;8.88;;;;;;;;;;5093500;28;20143;-84
2023/06/12 00:03:24;;;;;;;9.63;8.73;;;;;;;;;;5093721;28;20569;-84
2023/06/12 00:05:53;;;;;;;10.38;9.27;;;;;;;;;;5093301;28;20082;-84
2023/06/12 00:08:20;;;;;;;17.13;10.18;;;;;;;;;;5094306;28;20052;-84
2023/06/12 00:10:48;;;;;;;11.93;9.48;;;;;;;;;;5094343;28;20052;-84
2023/06/12 00:13:15;;;;;;;13.20;9.48;;;;;;;;;;5094575;28;20454;-84
2023/06/12 00:15:42;;;;;;;12.95;10.77;;;;;;;;;;5093365;28;20047;-84
2023/06/12 00:18:11;;;;;;;13.38;9.98;;;;;;;;;;5093182;28;20050;-86
2023/06/12 00:20:38;;;;;;;12.55;9.60;;;;;;;;;;5093175;28;20079;-86
2023/06/12 00:23:06;;;;;;;12.13;10.18;;;;;;;;;;5094002;28;20040;-84
2023/06/12 00:25:34;;;;;;;10.85;8.75;;;;;;;;;;5093311;28;20044;-86
2023/06/12 00:28:01;;;;;;;9.93;8.93;;;;;;;;;;5091598;28;20074;-85
2023/06/12 00:30:28;;;;;;;10.57;9.23;;;;;;;;;;5094584;28;20048;-86
2023/06/12 00:32:55;;;;;;;13.63;9.68;;;;;;;;;;5095607;28;20052;-86
2023/06/12 00:35:22;;;;;;;9.70;8.80;;;;;;;;;;5092950;28;20048;-86
2023/06/12 00:37:50;;;;;;;11.35;9.20;;;;;;;;;;5092877;28;20566;-86
2023/06/12 00:40:17;;;;;;;11.43;9.85;;;;;;;;;;5092660;28;20412;-85
2023/06/12 00:42:48;;;;;;;18.27;9.55;;;;;;;;;;5092672;28;20121;-86
2023/06/12 00:45:17;;;;;;;10.75;9.20;;;;;;;;;;5093908;28;20052;-86
2023/06/12 00:47:46;;;;;;;10.23;9.23;;;;;;;;;;5093558;28;20093;-86
2023/06/12 00:50:14;;;;;;;12.15;8.98;;;;;;;;;;5092495;28;20052;-86
2023/06/12 00:52:43;;;;;;;11.38;8.90;;;;;;;;;;5092717;28;20044;-86
2023/06/12 00:55:11;;;;;;;10.02;9.15;;;;;;;;;;5092134;28;20074;-85
2023/06/12 00:57:38;;;;;;;12.25;9.90;;;;;;;;;;5092519;28;20450;-86
2023/06/12 01:00:07;;;;;;;13.80;9.75;;;;;;;;;;5092325;28;20128;-86
2023/06/12 01:02:39;;;;;;;12.35;9.88;;;;;;;;;;5092522;28;20101;-86
2023/06/12 01:05:08;;;;;;;16.38;10.25;;;;;;;;;;5093528;28;20097;-86
2023/06/12 01:07:43;;;;;;;12.98;9.85;;;;;;;;;;5093267;28;20052;-86
2023/06/12 01:10:13;;;;;;;17.70;11.10;;;;;;;;;;5092263;28;20519;-86
2023/06/12 01:12:41;;;;;;;14.00;10.80;;;;;;;;;;5092313;28;20101;-86
2023/06/12 01:15:09;;;;;;;19.65;10.50;;;;;;;;;;5093217;28;20044;-85
2023/06/12 01:17:40;;;;;;;12.98;10.18;;;;;;;;;;5092161;28;20086;-86
2023/06/12 01:20:11;;;;;;;11.50;10.27;;;;;;;;;;5093247;28;20068;-86
2023/06/12 01:22:41;;;;;;;13.90;10.55;;;;;;;;;;5093215;28;20056;-85
2023/06/12 01:25:16;;;;;;;15.43;10.30;;;;;;;;;;5091920;28;20040;-86
2023/06/12 01:27:59;;;;;;;15.02;11.20;;;;;;;;;;5092144;28;20076;-86
2023/06/12 01:30:42;;;;;;;14.43;11.32;;;;;;;;;;5092163;28;20086;-86
2023/06/12 01:33:12;;;;;;;12.13;10.93;;;;;;;;;;5092024;28;20056;-86
2023/06/12 01:35:43;;;;;;;13.88;10.18;;;;;;;;;;5092271;28;20044;-86
2023/06/12 01:38:16;;;;;;;12.65;10.63;;;;;;;;;;5093135;28;20385;-86
2023/06/12 01:40:45;;;;;;;12.00;10.52;;;;;;;;;;5091931;28;20052;-86
2023/06/12 01:43:12;;;;;;;16.10;11.07;;;;;;;;;;5091941;28;20086;-86
2023/06/12 01:45:40;;;;;;;15.65;12.68;;;;;;;;;;5093065;28;20484;-86
2023/06/12 01:48:08;;;;;;;22.35;10.95;;;;;;;;;;5094014;28;20052;-86
2023/06/12 01:50:35;;;;;;;14.88;10.93;;;;;;;;;;5091873;28;20044;-86
2023/06/12 01:53:02;;;;;;;12.35;11.15;;;;;;;;;;5091726;28;20090;-86
2023/06/12 01:55:30;;;;;;;12.05;10.85;;;;;;;;;;5091880;28;20044;-85
2023/06/12 01:57:57;;;;;;;13.50;11.15;;;;;;;;;;5091679;28;20097;-86
2023/06/12 02:00:24;;;;;;;12.38;10.73;;;;;;;;;;5091914;28;20382;-86
2023/06/12 02:02:56;;;;;;;12.50;11.20;;;;;;;;;;5092469;28;20514;-86
2023/06/12 02:05:23;;;;;;;15.13;11.95;;;;;;;;;;5092614;28;20064;-86
2023/06/12 02:07:51;;;;;;;12.55;11.35;;;;;;;;;;5095956;28;20512;-86
2023/06/12 02:10:18;;;;;;;13.65;11.25;;;;;;;;;;5096446;28;20085;-86
2023/06/12 02:12:45;;;;;;;13.98;12.18;;;;;;;;;;5095184;28;20100;-86
2023/06/12 02:15:12;;;;;;;12.60;10.93;;;;;;;;;;5096668;28;20087;-86
2023/06/12 02:17:40;;;;;;;12.60;11.30;;;;;;;;;;5096349;28;20048;-86
2023/06/12 02:20:08;;;;;;;13.40;11.88;;;;;;;;;;5094860;28;20052;-86
2023/06/12 02:22:35;;;;;;;13.27;11.98;;;;;;;;;;5096323;28;20565;-86
2023/06/12 02:25:03;;;;;;;14.52;12.77;;;;;;;;;;5094964;28;20075;-86
2023/06/12 02:27:30;;;;;;;17.55;12.43;;;;;;;;;;5095930;28;20040;-86
2023/06/12 02:29:57;;;;;;;13.70;11.45;;;;;;;;;;5096031;28;20113;-85
2023/06/12 02:32:24;;;;;;;14.10;11.88;;;;;;;;;;5094955;28;20075;-85
2023/06/12 02:34:52;;;;;;;13.20;11.70;;;;;;;;;;5094944;28;20048;-86
2023/06/12 02:37:20;;;;;;;18.80;12.45;;;;;;;;;;5094930;28;20450;-86
2023/06/12 02:39:47;;;;;;;15.77;12.02;;;;;;;;;;5095940;28;20044;-86
2023/06/12 02:42:14;;;;;;;15.32;12.35;;;;;;;;;;5094845;28;20044;-86
2023/06/12 02:44:42;;;;;;;16.23;11.68;;;;;;;;;;5095783;28;20106;-85
2023/06/12 02:47:09;;;;;;;13.10;11.82;;;;;;;;;;5094538;28;20052;-86
2023/06/12 02:49:38;;;;;;;15.57;12.55;;;;;;;;;;5095766;28;20138;-86
2023/06/12 02:52:06;;;;;;;16.67;12.52;;;;;;;;;;5095790;28;20415;-86
2023/06/12 02:54:33;;;;;;;14.00;12.18;;;;;;;;;;5094602;28;20044;-86
2023/06/12 02:57:00;;;;;;;14.05;11.90;;;;;;;;;;5095722;28;20396;-86
2023/06/12 02:59:27;;;;;;;14.15;12.45;;;;;;;;;;5094582;28;20218;-86
2023/06/12 03:01:54;;;;;;;14.43;12.45;;;;;;;;;;5094047;28;20056;-86
2023/06/12 03:04:22;;;;;;;13.90;12.50;;;;;;;;;;5095697;28;20097;-86
2023/06/12 03:06:55;;;;;;;16.38;13.82;;;;;;;;;;5094573;28;20411;-86
2023/06/12 03:09:23;;;;;;;13.45;12.20;;;;;;;;;;5095320;28;20048;-86
2023/06/12 03:11:51;;;;;;;13.93;12.55;;;;;;;;;;5095868;28;20466;-87
2023/06/12 03:14:24;;;;;;;15.32;13.20;;;;;;;;;;5095431;28;20070;-86
2023/06/12 03:16:52;;;;;;;14.95;12.73;;;;;;;;;;5095007;28;20047;-86
2023/06/12 03:19:19;;;;;;;15.68;12.93;;;;;;;;;;5095220;28;20105;-85
2023/06/12 03:21:46;;;;;;;14.18;12.77;;;;;;;;;;5094018;28;20047;-85
2023/06/12 03:24:13;;;;;;;17.08;13.55;;;;;;;;;;5094905;28;20056;-85
2023/06/12 03:26:41;;;;;;;16.50;13.13;;;;;;;;;;5093779;28;20093;-86
2023/06/12 03:29:10;;;;;;;15.23;13.73;;;;;;;;;;5094856;28;20079;-86
2023/06/12 03:31:37;;;;;;;15.70;14.10;;;;;;;;;;5093621;28;20058;-86
2023/06/12 03:34:05;;;;;;;16.20;13.75;;;;;;;;;;5093672;28;20135;-86
2023/06/12 03:36:33;;;;;;;14.65;13.07;;;;;;;;;;5093679;28;20492;-86
2023/06/12 03:39:02;;;;;;;16.27;13.95;;;;;;;;;;5093561;28;20044;-86
2023/06/12 03:41:31;;;;;;;17.30;13.48;;;;;;;;;;5093538;28;20135;-85
2023/06/12 03:43:59;;;;;;;15.63;12.77;;;;;;;;;;5093440;28;20443;-86
2023/06/12 03:46:26;;;;;;;14.63;13.23;;;;;;;;;;5093604;28;20052;-86
2023/06/12 03:48:53;;;;;;;17.15;13.73;;;;;;;;;;5093392;28;20052;-86
2023/06/12 03:51:21;;;;;;;15.05;13.55;;;;;;;;;;5093489;28;20040;-86
2023/06/12 03:53:48;;;;;;;20.35;17.13;;;;;;;;;;5093162;28;20070;-85
2023/06/12 03:56:15;;;;;;;22.23;17.92;;;;;;;;;;5094524;28;20044;-86
2023/06/12 03:58:43;;;;;;;22.13;17.08;;;;;;;;;;5093547;28;20074;-85
2023/06/12 04:01:10;;;;;;;15.40;13.68;;;;;;;;;;5092966;28;20553;-85
2023/06/12 04:03:38;;;;;;;20.23;14.43;;;;;;;;;;5094161;28;20047;-86
2023/06/12 04:06:05;;;;;;;16.63;13.65;;;;;;;;;;5093119;28;20454;-86
2023/06/12 04:08:33;;;;;;;13.93;12.48;;;;;;;;;;5094118;28;20044;-86
2023/06/12 04:11:01;;;;;;;14.25;12.77;;;;;;;;;;5092911;28;20143;-86
2023/06/12 04:13:29;;;;;;;13.93;12.50;;;;;;;;;;5092969;28;20048;-86
2023/06/12 04:15:57;;;;;;;14.98;11.85;;;;;;;;;;5092870;28;20071;-86
2023/06/12 04:18:24;;;;;;;20.55;12.18;;;;;;;;;;5093690;28;20396;-86
2023/06/12 04:20:54;;;;;;;15.93;11.93;;;;;;;;;;5100627;28;20051;-86
2023/06/12 04:23:22;;;;;;;13.43;12.05;;;;;;;;;;5093071;28;20048;-86
2023/06/12 04:25:50;;;;;;;14.00;12.32;;;;;;;;;;5092717;28;20048;-86
2023/06/12 04:28:21;;;;;;;15.82;13.45;;;;;;;;;;5092266;28;20561;-86
2023/06/12 04:30:49;;;;;;;15.43;12.27;;;;;;;;;;5093445;28;20071;-86
2023/06/12 04:33:17;;;;;;;24.02;13.57;;;;;;;;;;5092815;28;20458;-86
2023/06/12 04:35:45;;;;;;;15.82;12.60;;;;;;;;;;5093670;28;20407;-86
2023/06/12 04:38:13;;;;;;;25.00;14.57;;;;;;;;;;5092741;28;20051;-86
2023/06/12 04:40:41;;;;;;;18.25;12.88;;;;;;;;;;5092567;28;20102;-86
2023/06/12 04:43:09;;;;;;;14.40;12.90;;;;;;;;;;5092255;28;20083;-86
2023/06/12 04:45:36;;;;;;;21.63;14.18;;;;;;;;;;5092361;28;20097;-86
2023/06/12 04:48:04;;;;;;;39.88;20.77;;;;;;;;;;5093461;28;20048;-86
2023/06/12 04:50:32;;;;;;;22.17;14.40;;;;;;;;;;5092508;28;20048;-86
2023/06/12 04:52:59;;;;;;;17.52;12.75;;;;;;;;;;5092306;28;20072;-86
2023/06/12 04:55:28;;;;;;;17.70;11.52;;;;;;;;;;5092473;28;20044;-86
2023/06/12 04:57:57;;;;;;;15.00;11.40;;;;;;;;;;5092450;28;20083;-86
2023/06/12 05:00:25;;;;;;;16.98;11.13;;;;;;;;;;5092103;28;20077;-86
2023/06/12 05:02:53;;;;;;;14.68;11.40;;;;;;;;;;5092053;28;20076;-87
2023/06/12 05:05:20;;;;;;;14.93;11.52;;;;;;;;;;5092504;28;20082;-86
2023/06/12 05:07:48;;;;;;;15.45;11.63;;;;;;;;;;5091967;28;20048;-87
2023/06/12 05:10:15;;;;;;;13.02;10.38;;;;;;;;;;5093291;28;20268;-86
2023/06/12 05:12:43;;;;;;;14.77;10.20;;;;;;;;;;5093144;28;20126;-85
2023/06/12 05:15:10;;;;;;;14.65;10.70;;;;;;;;;;5092996;28;20044;-84
2023/06/12 05:17:38;;;;;;;19.80;10.65;;;;;;;;;;5093073;28;20040;-85
2023/06/12 05:20:08;;;;;;;34.95;16.80;;;;;;;;;;5092129;28;20047;-85
2023/06/12 05:22:36;;;;;;;51.42;20.15;;;;;;;;;;5091968;28;20052;-84
2023/06/12 05:25:04;;;;;;;106.07;38.65;;;;;;;;;;5091759;28;20126;-84
2023/06/12 05:27:32;;;;;;;138.52;44.10;;;;;;;;;;5092941;28;20481;-84
2023/06/12 05:29:59;;;;;;;65.40;24.70;;;;;;;;;;5091848;28;20056;-85
2023/06/12 05:32:27;;;;;;;78.43;30.55;;;;;;;;;;5091971;28;20068;-86
2023/06/12 05:34:54;;;;;;;92.20;34.90;;;;;;;;;;5093042;28;20056;-84
2023/06/12 05:37:21;;;;;;;109.70;39.95;;;;;;;;;;5099989;28;20070;-85
2023/06/12 05:39:49;;;;;;;129.48;45.20;;;;;;;;;;5093366;28;20512;-85
2023/06/12 05:42:16;;;;;;;122.05;48.55;;;;;;;;;;5097117;28;20064;-85
2023/06/12 05:44:46;;;;;;;142.70;50.55;;;;;;;;;;5096299;28;20454;-85
2023/06/12 05:47:13;;;;;;;135.90;53.10;;;;;;;;;;5095904;28;20044;-85
2023/06/12 05:49:41;;;;;;;137.52;53.17;;;;;;;;;;5095935;28;20052;-86
2023/06/12 05:52:11;;;;;;;156.15;56.08;;;;;;;;;;5095804;28;20047;-84
2023/06/12 05:54:38;;;;;;;160.02;62.33;;;;;;;;;;5097007;28;20055;-85
2023/06/12 05:57:08;;;;;;;136.35;51.53;;;;;;;;;;5095906;28;20066;-85
2023/06/12 05:59:37;;;;;;;230.93;86.78;;;;;;;;;;5095854;28;20054;-85
2023/06/12 06:02:04;;;;;;;213.65;79.47;;;;;;;;;;5095559;28;20044;-85
2023/06/12 06:04:32;;;;;;;160.88;64.25;;;;;;;;;;5095338;28;20063;-85
2023/06/12 06:07:00;;;;;;;146.82;57.92;;;;;;;;;;5095407;28;20069;-86
2023/06/12 06:09:44;;;;;;;130.98;48.97;;;;;;;;;;5095676;28;20101;-86
2023/06/12 06:12:11;;;;;;;74.18;31.83;;;;;;;;;;5095237;28;20048;-85
2023/06/12 06:14:38;;;;;;;65.30;29.67;;;;;;;;;;5096330;28;20044;-85
2023/06/12 06:17:05;;;;;;;73.65;29.48;;;;;;;;;;5095259;28;20314;-85
2023/06/12 06:19:33;;;;;;;127.43;51.53;;;;;;;;;;5096416;28;20471;-85
2023/06/12 06:22:00;;;;;;;144.07;61.85;;;;;;;;;;5095187;28;20062;-85
2023/06/12 06:24:27;;;;;;;128.77;49.70;;;;;;;;;;5096679;28;20059;-86
2023/06/12 06:26:55;;;;;;;77.75;33.78;;;;;;;;;;5093817;28;20062;-85
2023/06/12 06:29:23;;;;;;;104.93;34.85;;;;;;;;;;5094864;28;20458;-86
2023/06/12 06:31:50;;;;;;;85.25;33.45;;;;;;;;;;5095766;28;20075;-85
2023/06/12 06:34:18;;;;;;;80.45;29.83;;;;;;;;;;5096432;28;20048;-86
2023/06/12 06:36:46;;;;;;;70.80;29.25;;;;;;;;;;5096249;28;20055;-85
2023/06/12 06:39:13;;;;;;;40.95;19.40;;;;;;;;;;5095060;28;20083;-85
2023/06/12 06:41:40;;;;;;;64.78;26.45;;;;;;;;;;5094940;28;20040;-85
2023/06/12 06:44:08;;;;;;;43.47;19.48;;;;;;;;;;5094979;28;20068;-86
2023/06/12 06:46:35;;;;;;;41.45;20.35;;;;;;;;;;5095119;28;20488;-85
2023/06/12 06:49:02;;;;;;;38.40;19.00;;;;;;;;;;5094641;28;20071;-85
2023/06/12 06:51:32;;;;;;;39.15;18.55;;;;;;;;;;5095014;28;20044;-85
2023/06/12 06:54:00;;;;;;;35.58;16.73;;;;;;;;;;5095597;28;20044;-85
2023/06/12 06:56:27;;;;;;;21.98;12.75;;;;;;;;;;5095682;28;20055;-86
2023/06/12 06:58:54;;;;;;;21.92;10.27;;;;;;;;;;5094542;28;20561;-85
2023/06/12 07:01:22;;;;;;;13.27;9.00;;;;;;;;;;5094656;28;20052;-86
2023/06/12 07:03:50;;;;;;;11.73;7.38;;;;;;;;;;5094049;28;20079;-85
2023/06/12 07:06:17;;;;;;;10.25;7.85;;;;;;;;;;5094375;28;20044;-86
2023/06/12 07:08:45;;;;;;;10.02;7.30;;;;;;;;;;5094531;28;20040;-87
2023/06/12 07:11:12;;;;;;;8.73;6.30;;;;;;;;;;5094751;28;20044;-87
2023/06/12 07:13:40;;;;;;;11.10;6.80;;;;;;;;;;5094912;28;20565;-87
2023/06/12 07:16:07;;;;;;;10.57;6.15;;;;;;;;;;5094798;28;20048;-88
2023/06/12 07:18:35;;;;;;;5.68;4.60;;;;;;;;;;5094624;28;20136;-86
2023/06/12 07:21:03;;;;;;;6.15;4.38;;;;;;;;;;5094409;28;20463;-86
2023/06/12 07:23:30;;;;;;;9.13;4.15;;;;;;;;;;5094310;28;20048;-88
2023/06/12 07:25:58;;;;;;;9.38;3.97;;;;;;;;;;5094441;28;20173;-87
2023/06/12 07:28:37;;;;;;;6.03;3.40;;;;;;;;;;5094690;28;20143;-88
2023/06/12 07:31:04;;;;;;;6.07;3.30;;;;;;;;;;5094125;28;20048;-87
2023/06/12 07:33:32;;;;;;;4.43;3.40;;;;;;;;;;5094542;28;20044;-88
2023/06/12 07:35:59;;;;;;;3.22;2.92;;;;;;;;;;5094174;28;20050;-86
2023/06/12 07:38:27;;;;;;;5.50;3.15;;;;;;;;;;5094646;28;20514;-87
2023/06/12 07:40:54;;;;;;;6.40;3.28;;;;;;;;;;5093955;28;20048;-87
2023/06/12 07:43:21;;;;;;;6.13;3.20;;;;;;;;;;5095222;28;20073;-87
2023/06/12 07:45:48;;;;;;;3.38;3.08;;;;;;;;;;5094033;28;20091;-89
2023/06/12 07:48:16;;;;;;;8.25;3.15;;;;;;;;;;5093997;28;20055;-86
2023/06/12 07:50:43;;;;;;;3.45;2.95;;;;;;;;;;5093597;28;20052;-87
2023/06/12 07:53:11;;;;;;;3.92;3.05;;;;;;;;;;5094369;28;20052;-89
2023/06/12 07:56:00;;;;;;;3.22;2.90;;;;;;;;;;5095130;28;20050;-87
2023/06/12 07:58:27;;;;;;;3.15;2.95;;;;;;;;;;5093861;28;20048;-90
2023/06/12 08:00:57;;;;;;;5.30;3.15;;;;;;;;;;5093873;28;20450;-89
2023/06/12 08:03:25;;;;;;;7.75;3.22;;;;;;;;;;5093276;28;20087;-87
2023/06/12 08:05:58;;;;;;;5.43;3.20;;;;;;;;;;5094434;28;20480;-87
2023/06/12 08:08:28;;;;;;;5.97;2.95;;;;;;;;;;5102109;28;20059;-87
2023/06/12 08:10:57;;;;;;;5.80;3.00;;;;;;;;;;5094725;28;20044;-87
2023/06/12 08:13:24;;;;;;;4.65;2.28;;;;;;;;;;5095455;28;20047;-89
2023/06/12 08:15:52;;;;;;;4.18;2.40;;;;;;;;;;5094720;28;20511;-88
2023/06/12 08:18:19;;;;;;;3.22;2.47;;;;;;;;;;5093962;28;20488;-88
2023/06/12 08:20:47;;;;;;;4.22;2.58;;;;;;;;;;5093799;28;20139;-88
2023/06/12 08:23:14;;;;;;;8.68;2.50;;;;;;;;;;5094189;28;20055;-92
2023/06/12 08:25:43;;;;;;;3.92;2.30;;;;;;;;;;5093651;28;20048;-88
2023/06/12 08:28:10;;;;;;;2.50;2.10;;;;;;;;;;5094052;28;20048;-88
2023/06/12 08:30:38;;;;;;;4.68;2.50;;;;;;;;;;5093788;28;20048;-88
2023/06/12 08:33:05;;;;;;;3.65;1.98;;;;;;;;;;5093516;28;20546;-85
2023/06/12 08:35:34;;;;;;;5.47;2.50;;;;;;;;;;5093468;28;20131;-86
2023/06/12 08:38:02;;;;;;;10.90;2.40;;;;;;;;;;5093134;28;20502;-86
2023/06/12 08:40:29;;;;;;;4.85;2.22;;;;;;;;;;5093546;28;20047;-86
2023/06/12 08:42:57;;;;;;;5.00;2.30;;;;;;;;;;5093700;28;20113;-90
2023/06/12 08:45:26;;;;;;;8.02;2.75;;;;;;;;;;5093762;28;20420;-88
2023/06/12 08:47:56;;;;;;;4.45;2.10;;;;;;;;;;5093845;28;20044;-86
2023/06/12 08:50:23;;;;;;;4.57;2.22;;;;;;;;;;5093168;28;20059;-89
2023/06/12 08:52:52;;;;;;;3.65;2.28;;;;;;;;;;5093919;28;20044;-91
2023/06/12 08:55:20;;;;;;;3.55;2.22;;;;;;;;;;5094152;28;20051;-90
2023/06/12 08:57:48;;;;;;;4.68;2.10;;;;;;;;;;5094248;28;20401;-88
2023/06/12 09:00:16;;;;;;;5.80;2.30;;;;;;;;;;5093536;28;20048;-88
2023/06/12 09:02:49;;;;;;;3.22;2.10;;;;;;;;;;5093275;28;20044;-87
2023/06/12 09:05:18;;;;;;;7.57;2.33;;;;;;;;;;5093307;28;20056;-87
2023/06/12 09:07:47;;;;;;;6.15;2.30;;;;;;;;;;5093573;28;20514;-88
2023/06/12 09:10:14;;;;;;;6.15;2.20;;;;;;;;;;5094054;28;20048;-87
2023/06/12 09:12:43;;;;;;;7.07;2.10;;;;;;;;;;5093294;28;20044;-87
2023/06/12 09:15:21;;;;;;;5.03;2.45;;;;;;;;;;5092626;28;20052;-87
2023/06/12 09:17:57;;;;;;;4.03;1.95;;;;;;;;;;5092946;28;20044;-87
2023/06/12 09:20:33;;;;;;;2.35;2.10;;;;;;;;;;5093331;28;20075;-89
2023/06/12 09:23:09;;;;;;;7.03;2.05;;;;;;;;;;5096294;28;20130;-88
2023/06/12 09:25:39;;;;;;;2.78;2.00;;;;;;;;;;5100679;28;20052;-90
2023/06/12 09:28:09;;;;;;;2.38;2.17;;;;;;;;;;5092670;28;20484;-87
2023/06/12 09:30:39;;;;;;;2.70;1.83;;;;;;;;;;5092358;28;20070;-89
2023/06/12 09:33:07;;;;;;;4.68;2.20;;;;;;;;;;5092462;28;20408;-91
2023/06/12 09:35:54;;;;;;;4.28;2.22;;;;;;;;;;5093655;28;20045;-88
2023/06/12 09:38:34;;;;;;;3.30;2.00;;;;;;;;;;5092788;28;20052;-86
2023/06/12 09:41:03;;;;;;;2.30;1.88;;;;;;;;;;5092777;28;20052;-86
2023/06/12 09:43:34;;;;;;;2.25;2.05;;;;;;;;;;5092793;28;20518;-91
2023/06/12 09:46:03;;;;;;;2.58;1.98;;;;;;;;;;5092941;28;20048;-92
2023/06/12 09:48:37;;;;;;;2.60;1.92;;;;;;;;;;5092776;28;20144;-90
2023/06/12 09:51:08;;;;;;;2.72;1.80;;;;;;;;;;5092848;28;20052;-88
2023/06/12 09:53:38;;;;;;;4.68;2.40;;;;;;;;;;5093302;28;20549;-86
2023/06/12 09:56:07;;;;;;;6.53;2.08;;;;;;;;;;5094255;28;20052;-87
2023/06/12 09:58:38;;;;;;;5.28;2.45;;;;;;;;;;5093962;28;20047;-88
2023/06/12 10:01:07;;;;;;;4.13;1.95;;;;;;;;;;5092823;28;20052;-86
2023/06/12 10:03:36;;;;;;;5.97;2.28;;;;;;;;;;5093263;28;20131;-90
2023/06/12 10:06:04;;;;;;;4.95;2.38;;;;;;;;;;5092807;28;20480;-89
2023/06/12 10:08:33;;;;;;;2.33;2.22;;;;;;;;;;5093366;28;20074;-93
2023/06/12 10:11:03;;;;;;;3.17;2.30;;;;;;;;;;5092452;28;20101;-92
2023/06/12 10:13:32;;;;;;;2.88;1.95;;;;;;;;;;5092565;28;20052;-88
2023/06/12 10:16:00;;;;;;;3.95;2.35;;;;;;;;;;5092630;28;20446;-88
2023/06/12 10:18:28;;;;;;;3.55;2.03;;;;;;;;;;5092473;28;20134;-89
2023/06/12 10:20:56;;;;;;;5.50;1.83;;;;;;;;;;5092384;28;20047;-87
2023/06/12 10:23:23;;;;;;;2.03;1.90;;;;;;;;;;5092575;28;20389;-87
2023/06/12 10:25:51;;;;;;;3.00;2.45;;;;;;;;;;5092261;28;20067;-90
2023/06/12 10:28:18;;;;;;;2.50;1.95;;;;;;;;;;5095474;28;20064;-87
2023/06/12 10:31:04;;;;;;;1.95;1.80;;;;;;;;;;5096000;28;20052;-88
2023/06/12 10:33:32;;;;;;;5.47;1.80;;;;;;;;;;5095799;28;20044;-87
2023/06/12 10:35:59;;;;;;;2.03;1.90;;;;;;;;;;5095570;28;20051;-88
2023/06/12 10:38:26;;;;;;;3.13;2.17;;;;;;;;;;5096385;28;20086;-89
2023/06/12 10:40:54;;;;;;;5.60;2.05;;;;;;;;;;5098179;28;20077;-91
2023/06/12 10:43:26;;;;;;;6.10;2.15;;;;;;;;;;5105139;28;20052;-86
2023/06/12 10:45:57;;;;;;;4.85;2.20;;;;;;;;;;5096421;28;20052;-91
2023/06/12 10:48:25;;;;;;;6.20;2.25;;;;;;;;;;5096238;28;20052;-87
2023/06/12 10:50:57;;;;;;;2.35;1.98;;;;;;;;;;5095593;28;20060;-86
2023/06/12 10:53:25;;;;;;;4.82;2.03;;;;;;;;;;5097493;28;20052;-87
2023/06/12 10:56:03;;;;;;;4.20;2.30;;;;;;;;;;5096905;28;20044;-87
2023/06/12 10:58:40;;;;;;;5.13;2.30;;;;;;;;;;5096455;28;20048;-88
2023/06/12 11:01:08;;;;;;;3.85;2.40;;;;;;;;;;5096272;28;20044;-90
2023/06/12 11:03:38;;;;;;;2.25;2.05;;;;;;;;;;5095947;28;20491;-90
2023/06/12 11:06:13;;;;;;;3.45;2.10;;;;;;;;;;5095272;28;20055;-88
2023/06/12 11:08:41;;;;;;;5.70;2.58;;;;;;;;;;5095789;28;20047;-91
2023/06/12 11:11:11;;;;;;;2.88;2.38;;;;;;;;;;5095204;28;20074;-89
2023/06/12 11:13:40;;;;;;;5.45;2.70;;;;;;;;;;5096201;28;20485;-90
2023/06/12 11:16:07;;;;;;;5.88;2.47;;;;;;;;;;5095876;28;20048;-89
2023/06/12 11:18:35;;;;;;;5.28;2.90;;;;;;;;;;5095300;28;20071;-89
2023/06/12 11:21:02;;;;;;;2.78;2.60;;;;;;;;;;5095350;28;20048;-87
2023/06/12 11:23:30;;;;;;;5.80;2.47;;;;;;;;;;5095165;28;20067;-92
2023/06/12 11:26:01;;;;;;;2.83;2.60;;;;;;;;;;5095137;28;20079;-92
2023/06/12 11:28:28;;;;;;;5.18;2.30;;;;;;;;;;5095187;28;20055;-89
2023/06/12 11:30:56;;;;;;;5.72;2.72;;;;;;;;;;5094574;28;20117;-92
2023/06/12 11:33:38;;;;;;;3.13;2.38;;;;;;;;;;5095119;28;20147;-87
2023/06/12 11:36:06;;;;;;;11.60;2.55;;;;;;;;;;5095471;28;20206;-88
2023/06/12 11:38:33;;;;;;;3.50;2.33;;;;;;;;;;5095931;28;20493;-86
2023/06/12 11:41:04;;;;;;;8.18;2.65;;;;;;;;;;5095236;28;20547;-88
2023/06/12 11:43:31;;;;;;;3.20;2.60;;;;;;;;;;5095076;28;20135;-90
2023/06/12 11:46:03;;;;;;;5.28;2.70;;;;;;;;;;5094969;28;20488;-89
2023/06/12 11:48:31;;;;;;;3.00;2.63;;;;;;;;;;5094685;28;20078;-88
2023/06/12 11:51:01;;;;;;;4.80;2.65;;;;;;;;;;5094878;28;20102;-88
2023/06/12 11:53:31;;;;;;;3.75;2.28;;;;;;;;;;5094287;28;20048;-87
2023/06/12 11:56:02;;;;;;;4.13;2.35;;;;;;;;;;5094533;28;20124;-91
2023/06/12 11:58:41;;;;;;;2.95;2.55;;;;;;;;;;5094839;28;20044;-87
2023/06/12 12:01:13;;;;;;;3.03;2.72;;;;;;;;;;5095427;28;20055;-87
2023/06/12 12:03:46;;;;;;;4.00;2.38;;;;;;;;;;5101721;28;20052;-88
2023/06/12 12:06:17;;;;;;;2.80;2.60;;;;;;;;;;5097279;28;20059;-89
2023/06/12 12:08:45;;;;;;;5.53;2.88;;;;;;;;;;5096977;28;20130;-94
2023/06/12 12:11:16;;;;;;;9.13;2.80;;;;;;;;;;5095989;28;20480;-92
2023/06/12 12:13:50;;;;;;;5.07;2.70;;;;;;;;;;5095074;28;20114;-89
2023/06/12 12:16:22;;;;;;;3.33;2.97;;;;;;;;;;5094900;28;20469;-91
2023/06/12 12:18:50;;;;;;;4.63;2.70;;;;;;;;;;5096792;28;20086;-92
2023/06/12 12:21:17;;;;;;;2.78;2.47;;;;;;;;;;5095280;28;20055;-90
2023/06/12 12:23:45;;;;;;;3.38;2.22;;;;;;;;;;5095208;28;20040;-89
2023/06/12 12:26:13;;;;;;;3.10;2.83;;;;;;;;;;5095034;28;20480;-89
2023/06/12 12:28:42;;;;;;;3.58;2.60;;;;;;;;;;5093605;28;20089;-90
2023/06/12 12:31:09;;;;;;;8.75;2.65;;;;;;;;;;5099658;28;20048;-89
2023/06/12 12:33:37;;;;;;;2.75;2.45;;;;;;;;;;5096726;28;20066;-91
2023/06/12 12:36:04;;;;;;;3.55;2.80;;;;;;;;;;5094621;28;20459;-88
2023/06/12 12:38:31;;;;;;;4.45;2.45;;;;;;;;;;5095619;28;20496;-93
2023/06/12 12:40:59;;;;;;;4.75;2.58;;;;;;;;;;5093615;28;20048;-88
2023/06/12 12:43:26;;;;;;;3.05;2.85;;;;;;;;;;5093573;28;20055;-89
2023/06/12 12:45:53;;;;;;;5.05;2.85;;;;;;;;;;5093729;28;20052;-91
2023/06/12 12:48:20;;;;;;;3.03;2.70;;;;;;;;;;5093473;28;20044;-88
2023/06/12 12:50:48;;;;;;;3.92;2.42;;;;;;;;;;5092261;28;20060;-88
2023/06/12 12:53:35;;;;;;;4.60;2.53;;;;;;;;;;5094283;28;20056;-88
2023/06/12 12:56:02;;;;;;;5.07;3.22;;;;;;;;;;5094193;28;20052;-92
2023/06/12 12:58:29;;;;;;;3.83;2.75;;;;;;;;;;5093169;28;20093;-92
2023/06/12 13:00:59;;;;;;;3.83;2.30;;;;;;;;;;5097269;28;20455;-87
2023/06/12 13:03:29;;;;;;;2.80;2.60;;;;;;;;;;5093041;28;20440;-89
2023/06/12 13:05:57;;;;;;;2.67;2.47;;;;;;;;;;5093192;28;20389;-87
2023/06/12 13:08:24;;;;;;;2.88;2.67;;;;;;;;;;5095281;28;20056;-89
2023/06/12 13:10:51;;;;;;;3.65;2.70;;;;;;;;;;5097732;28;20052;-88
2023/06/12 13:13:18;;;;;;;2.90;2.50;;;;;;;;;;5092622;28;20097;-88
2023/06/12 13:15:47;;;;;;;4.70;2.80;;;;;;;;;;5093179;28;20557;-91
2023/06/12 13:18:15;;;;;;;4.63;2.58;;;;;;;;;;5098001;28;20488;-89
2023/06/12 13:20:43;;;;;;;9.35;2.53;;;;;;;;;;5101284;28;20051;-91
2023/06/12 13:23:11;;;;;;;5.22;2.42;;;;;;;;;;5093355;28;20055;-88
2023/06/12 13:25:41;;;;;;;4.60;2.60;;;;;;;;;;5092616;28;20051;-90
2023/06/12 13:28:08;;;;;;;4.72;2.78;;;;;;;;;;5092479;28;20052;-90
2023/06/12 13:30:35;;;;;;;3.28;2.58;;;;;;;;;;5093323;28;20059;-88
2023/06/12 13:33:04;;;;;;;4.97;2.53;;;;;;;;;;5092288;28;20078;-88
2023/06/12 13:35:31;;;;;;;5.25;2.72;;;;;;;;;;5093028;28;20079;-90
2023/06/12 13:37:58;;;;;;;5.65;2.70;;;;;;;;;;5092564;28;20043;-91
2023/06/12 13:40:25;;;;;;;2.53;2.40;;;;;;;;;;5092555;28;20052;-91
2023/06/12 13:42:53;;;;;;;2.90;2.60;;;;;;;;;;5092178;28;20109;-89
2023/06/12 13:45:20;;;;;;;3.00;2.70;;;;;;;;;;5092331;28;20074;-87
2023/06/12 13:47:47;;;;;;;2.90;2.78;;;;;;;;;;5093014;28;20044;-91
2023/06/12 13:50:16;;;;;;;4.22;2.80;;;;;;;;;;5093080;28;20146;-93
2023/06/12 13:52:43;;;;;;;9.35;3.20;;;;;;;;;;5094010;28;20097;-88
2023/06/12 13:55:10;;;;;;;3.55;3.25;;;;;;;;;;5092247;28;20052;-87
2023/06/12 13:57:39;;;;;;;2.88;2.60;;;;;;;;;;5093403;28;20048;-87
2023/06/12 14:00:07;;;;;;;3.33;2.95;;;;;;;;;;5092989;28;20084;-91
2023/06/12 14:02:35;;;;;;;3.30;3.00;;;;;;;;;;5096101;28;20047;-87
2023/06/12 14:05:03;;;;;;;3.10;2.90;;;;;;;;;;5096310;28;20546;-92
2023/06/12 14:07:35;;;;;;;4.00;3.13;;;;;;;;;;5098864;28;20384;-90
2023/06/12 14:10:03;;;;;;;5.57;2.90;;;;;;;;;;5096661;28;20098;-88
2023/06/12 14:12:33;;;;;;;3.08;2.70;;;;;;;;;;5097385;28;20052;-94
2023/06/12 14:15:05;;;;;;;4.72;2.80;;;;;;;;;;5097288;28;20043;-88
2023/06/12 14:17:32;;;;;;;4.30;3.15;;;;;;;;;;5096405;28;20058;-88
2023/06/12 14:20:00;;;;;;;7.57;3.35;;;;;;;;;;5095750;28;20403;-87
2023/06/12 14:22:28;;;;;;;4.07;2.90;;;;;;;;;;5096114;28;20131;-88
2023/06/12 14:24:55;;;;;;;3.20;3.00;;;;;;;;;;5095958;28;20404;-87
2023/06/12 14:27:22;;;;;;;4.32;3.08;;;;;;;;;;5097177;28;20108;-87
2023/06/12 14:29:50;;;;;;;3.05;2.85;;;;;;;;;;5095706;28;20051;-86
2023/06/12 14:32:17;;;;;;;3.65;2.65;;;;;;;;;;5095299;28;20572;-87
2023/06/12 14:34:44;;;;;;;6.10;3.38;;;;;;;;;;5096036;28;20077;-90
2023/06/12 14:37:12;;;;;;;3.20;2.92;;;;;;;;;;5102956;28;20059;-88
2023/06/12 14:39:41;;;;;;;5.00;3.25;;;;;;;;;;5096002;28;20480;-86